sensor_id;sensor_type;location;lat;lon;timestamp;P1;durP1;ratioP1;P2;durP2;ratioP2
20101;SDS011;10210;52.284;9.892;2022-07-06T00:01:50;5.70;;;1.37;;
20101;SDS011;10210;52.284;9.892;2022-07-06T00:04:16;6.57;;;1.50;;
20101;SDS011;10210;52.284;9.892;2022-07-06T00:06:43;4.73;;;1.53;;
20101;SDS011;10210;52.284;9.892;2022-07-06T00:09:09;4.27;;;1.40;;
20101;SDS011;10210;52.284;9.892;2022-07-06T00:11:35;5.27;;;1.50;;
20101;SDS011;10210;52.284;9.892;2022-07-06T00:14:01;4.87;;;1.50;;
20101;SDS011;10210;52.284;9.892;2022-07-06T00:16:27;7.10;;;1.50;;
20101;SDS011;10210;52.284;9.892;2022-07-06T00:18:53;6.87;;;1.60;;
20101;SDS011;10210;52.284;9.892;2022-07-06T00:21:19;6.77;;;1.40;;
20101;SDS011;10210;52.284;9.892;2022-07-06T00:23:45;10.00;;;1.60;;
20101;SDS011;10210;52.284;9.892;2022-07-06T00:26:10;7.83;;;1.77;;
20101;SDS011;10210;52.284;9.892;2022-07-06T00:28:36;7.97;;;1.67;;
20101;SDS011;10210;52.284;9.892;2022-07-06T00:31:02;7.53;;;1.57;;
20101;SDS011;10210;52.284;9.892;2022-07-06T00:33:28;4.53;;;1.37;;
20101;SDS011;10210;52.284;9.892;2022-07-06T00:35:54;6.20;;;1.60;;
20101;SDS011;10210;52.284;9.892;2022-07-06T00:38:20;5.07;;;1.50;;
20101;SDS011;10210;52.284;9.892;2022-07-06T00:40:46;6.20;;;1.57;;
20101;SDS011;10210;52.284;9.892;2022-07-06T00:43:11;5.00;;;1.53;;
20101;SDS011;10210;52.284;9.892;2022-07-06T00:45:37;4.77;;;1.17;;
20101;SDS011;10210;52.284;9.892;2022-07-06T00:48:03;3.53;;;1.20;;
20101;SDS011;10210;52.284;9.892;2022-07-06T00:50:29;4.00;;;1.40;;
20101;SDS011;10210;52.284;9.892;2022-07-06T00:52:56;6.07;;;1.37;;
20101;SDS011;10210;52.284;9.892;2022-07-06T00:55:29;6.57;;;1.50;;
20101;SDS011;10210;52.284;9.892;2022-07-06T00:58:06;4.30;;;1.40;;
20101;SDS011;10210;52.284;9.892;2022-07-06T01:00:34;4.60;;;1.40;;
20101;SDS011;10210;52.284;9.892;2022-07-06T01:03:00;3.77;;;1.50;;
20101;SDS011;10210;52.284;9.892;2022-07-06T01:05:26;4.37;;;1.70;;
20101;SDS011;10210;52.284;9.892;2022-07-06T01:07:53;4.17;;;1.40;;
20101;SDS011;10210;52.284;9.892;2022-07-06T01:10:19;4.43;;;1.40;;
20101;SDS011;10210;52.284;9.892;2022-07-06T01:12:47;3.00;;;1.37;;
20101;SDS011;10210;52.284;9.892;2022-07-06T01:15:14;6.90;;;1.63;;
20101;SDS011;10210;52.284;9.892;2022-07-06T01:17:43;5.10;;;1.47;;
20101;SDS011;10210;52.284;9.892;2022-07-06T01:22:47;5.47;;;1.67;;
20101;SDS011;10210;52.284;9.892;2022-07-06T01:25:15;6.37;;;1.63;;
20101;SDS011;10210;52.284;9.892;2022-07-06T01:27:42;5.37;;;1.40;;
20101;SDS011;10210;52.284;9.892;2022-07-06T01:30:13;5.33;;;1.50;;
20101;SDS011;10210;52.284;9.892;2022-07-06T01:32:42;5.47;;;1.50;;
20101;SDS011;10210;52.284;9.892;2022-07-06T01:35:10;7.70;;;1.50;;
20101;SDS011;10210;52.284;9.892;2022-07-06T01:37:40;4.43;;;1.40;;
20101;SDS011;10210;52.284;9.892;2022-07-06T01:40:07;2.87;;;1.30;;
20101;SDS011;10210;52.284;9.892;2022-07-06T01:42:36;6.77;;;1.50;;
20101;SDS011;10210;52.284;9.892;2022-07-06T01:45:03;6.97;;;1.63;;
20101;SDS011;10210;52.284;9.892;2022-07-06T01:47:31;6.03;;;1.60;;
20101;SDS011;10210;52.284;9.892;2022-07-06T01:49:58;7.77;;;1.50;;
20101;SDS011;10210;52.284;9.892;2022-07-06T01:52:25;4.77;;;1.47;;
20101;SDS011;10210;52.284;9.892;2022-07-06T01:54:52;4.33;;;1.30;;
20101;SDS011;10210;52.284;9.892;2022-07-06T01:57:19;4.90;;;1.40;;
20101;SDS011;10210;52.284;9.892;2022-07-06T01:59:44;3.83;;;1.40;;
20101;SDS011;10210;52.284;9.892;2022-07-06T02:02:10;5.10;;;1.40;;
20101;SDS011;10210;52.284;9.892;2022-07-06T02:04:36;7.57;;;1.50;;
20101;SDS011;10210;52.284;9.892;2022-07-06T02:07:02;7.30;;;1.93;;
20101;SDS011;10210;52.284;9.892;2022-07-06T02:09:28;4.87;;;1.50;;
20101;SDS011;10210;52.284;9.892;2022-07-06T02:11:53;3.63;;;1.40;;
20101;SDS011;10210;52.284;9.892;2022-07-06T02:14:19;4.53;;;1.40;;
20101;SDS011;10210;52.284;9.892;2022-07-06T02:16:44;4.17;;;1.40;;
20101;SDS011;10210;52.284;9.892;2022-07-06T02:19:10;4.80;;;1.40;;
20101;SDS011;10210;52.284;9.892;2022-07-06T02:21:36;6.27;;;1.60;;
20101;SDS011;10210;52.284;9.892;2022-07-06T02:24:01;6.03;;;1.57;;
20101;SDS011;10210;52.284;9.892;2022-07-06T02:26:27;2.60;;;1.30;;
20101;SDS011;10210;52.284;9.892;2022-07-06T02:28:53;7.63;;;1.70;;
20101;SDS011;10210;52.284;9.892;2022-07-06T02:31:19;2.80;;;1.23;;
20101;SDS011;10210;52.284;9.892;2022-07-06T02:33:44;5.90;;;1.60;;
20101;SDS011;10210;52.284;9.892;2022-07-06T02:36:10;4.90;;;1.50;;
20101;SDS011;10210;52.284;9.892;2022-07-06T02:38:36;3.67;;;1.40;;
20101;SDS011;10210;52.284;9.892;2022-07-06T02:41:01;6.10;;;1.60;;
20101;SDS011;10210;52.284;9.892;2022-07-06T02:43:28;6.20;;;1.60;;
20101;SDS011;10210;52.284;9.892;2022-07-06T02:45:53;3.53;;;1.40;;
20101;SDS011;10210;52.284;9.892;2022-07-06T02:48:19;5.03;;;1.77;;
20101;SDS011;10210;52.284;9.892;2022-07-06T02:50:46;6.77;;;1.60;;
20101;SDS011;10210;52.284;9.892;2022-07-06T02:53:12;6.40;;;1.60;;
20101;SDS011;10210;52.284;9.892;2022-07-06T02:55:38;5.07;;;1.40;;
20101;SDS011;10210;52.284;9.892;2022-07-06T02:58:03;4.37;;;1.47;;
20101;SDS011;10210;52.284;9.892;2022-07-06T03:00:29;5.50;;;1.47;;
20101;SDS011;10210;52.284;9.892;2022-07-06T03:02:55;7.53;;;1.80;;
20101;SDS011;10210;52.284;9.892;2022-07-06T03:05:21;4.63;;;1.40;;
20101;SDS011;10210;52.284;9.892;2022-07-06T03:07:46;8.50;;;1.93;;
20101;SDS011;10210;52.284;9.892;2022-07-06T03:10:12;3.30;;;1.50;;
20101;SDS011;10210;52.284;9.892;2022-07-06T03:12:37;4.60;;;1.50;;
20101;SDS011;10210;52.284;9.892;2022-07-06T03:15:03;6.77;;;1.53;;
20101;SDS011;10210;52.284;9.892;2022-07-06T03:17:29;7.20;;;1.60;;
20101;SDS011;10210;52.284;9.892;2022-07-06T03:19:55;5.20;;;1.43;;
20101;SDS011;10210;52.284;9.892;2022-07-06T03:22:20;6.47;;;1.60;;
20101;SDS011;10210;52.284;9.892;2022-07-06T03:24:46;4.97;;;1.70;;
20101;SDS011;10210;52.284;9.892;2022-07-06T03:27:12;6.23;;;1.70;;
20101;SDS011;10210;52.284;9.892;2022-07-06T03:29:37;7.97;;;1.90;;
20101;SDS011;10210;52.284;9.892;2022-07-06T03:32:03;7.63;;;1.77;;
20101;SDS011;10210;52.284;9.892;2022-07-06T03:34:29;8.60;;;1.67;;
20101;SDS011;10210;52.284;9.892;2022-07-06T03:36:55;6.87;;;1.80;;
20101;SDS011;10210;52.284;9.892;2022-07-06T03:39:20;5.23;;;1.47;;
20101;SDS011;10210;52.284;9.892;2022-07-06T03:41:46;5.87;;;1.80;;
20101;SDS011;10210;52.284;9.892;2022-07-06T03:44:12;5.03;;;1.73;;
20101;SDS011;10210;52.284;9.892;2022-07-06T03:46:37;7.37;;;2.00;;
20101;SDS011;10210;52.284;9.892;2022-07-06T03:49:03;10.17;;;2.03;;
20101;SDS011;10210;52.284;9.892;2022-07-06T03:51:28;5.77;;;1.70;;
20101;SDS011;10210;52.284;9.892;2022-07-06T03:53:54;5.77;;;1.63;;
20101;SDS011;10210;52.284;9.892;2022-07-06T03:56:20;7.67;;;1.83;;
20101;SDS011;10210;52.284;9.892;2022-07-06T03:58:55;4.90;;;1.73;;
20101;SDS011;10210;52.284;9.892;2022-07-06T04:01:21;7.03;;;1.80;;
20101;SDS011;10210;52.284;9.892;2022-07-06T04:03:47;6.57;;;1.50;;
20101;SDS011;10210;52.284;9.892;2022-07-06T04:06:13;6.57;;;1.80;;
20101;SDS011;10210;52.284;9.892;2022-07-06T04:08:39;6.57;;;1.90;;
20101;SDS011;10210;52.284;9.892;2022-07-06T04:11:05;9.70;;;2.00;;
20101;SDS011;10210;52.284;9.892;2022-07-06T04:13:31;5.67;;;1.70;;
20101;SDS011;10210;52.284;9.892;2022-07-06T04:15:57;7.40;;;1.80;;
20101;SDS011;10210;52.284;9.892;2022-07-06T04:18:23;6.70;;;1.60;;
20101;SDS011;10210;52.284;9.892;2022-07-06T04:20:49;5.63;;;1.60;;
20101;SDS011;10210;52.284;9.892;2022-07-06T04:23:15;5.43;;;1.50;;
20101;SDS011;10210;52.284;9.892;2022-07-06T04:25:41;7.57;;;1.60;;
20101;SDS011;10210;52.284;9.892;2022-07-06T04:28:06;7.57;;;1.60;;
20101;SDS011;10210;52.284;9.892;2022-07-06T04:30:32;6.60;;;1.80;;
20101;SDS011;10210;52.284;9.892;2022-07-06T04:32:58;8.83;;;2.00;;
20101;SDS011;10210;52.284;9.892;2022-07-06T04:35:24;8.23;;;1.90;;
20101;SDS011;10210;52.284;9.892;2022-07-06T04:37:50;6.00;;;1.73;;
20101;SDS011;10210;52.284;9.892;2022-07-06T04:40:16;8.97;;;1.90;;
20101;SDS011;10210;52.284;9.892;2022-07-06T04:42:41;6.33;;;1.90;;
20101;SDS011;10210;52.284;9.892;2022-07-06T04:45:07;6.07;;;1.80;;
20101;SDS011;10210;52.284;9.892;2022-07-06T04:47:34;5.57;;;1.90;;
20101;SDS011;10210;52.284;9.892;2022-07-06T04:50:00;6.63;;;1.93;;
20101;SDS011;10210;52.284;9.892;2022-07-06T04:52:27;8.03;;;2.00;;
20101;SDS011;10210;52.284;9.892;2022-07-06T04:54:56;7.37;;;1.83;;
20101;SDS011;10210;52.284;9.892;2022-07-06T04:57:22;8.40;;;1.60;;
20101;SDS011;10210;52.284;9.892;2022-07-06T04:59:50;8.07;;;1.60;;
20101;SDS011;10210;52.284;9.892;2022-07-06T05:02:17;4.50;;;1.53;;
20101;SDS011;10210;52.284;9.892;2022-07-06T05:04:43;7.67;;;1.60;;
20101;SDS011;10210;52.284;9.892;2022-07-06T05:07:09;5.53;;;1.47;;
20101;SDS011;10210;52.284;9.892;2022-07-06T05:09:35;9.03;;;1.70;;
20101;SDS011;10210;52.284;9.892;2022-07-06T05:12:00;8.00;;;1.97;;
20101;SDS011;10210;52.284;9.892;2022-07-06T05:14:26;4.97;;;1.77;;
20101;SDS011;10210;52.284;9.892;2022-07-06T05:16:52;8.10;;;1.80;;
20101;SDS011;10210;52.284;9.892;2022-07-06T05:19:17;6.37;;;1.43;;
20101;SDS011;10210;52.284;9.892;2022-07-06T05:21:43;8.87;;;1.67;;
20101;SDS011;10210;52.284;9.892;2022-07-06T05:24:09;7.33;;;2.00;;
20101;SDS011;10210;52.284;9.892;2022-07-06T05:26:35;5.90;;;1.53;;
20101;SDS011;10210;52.284;9.892;2022-07-06T05:29:01;7.33;;;1.70;;
20101;SDS011;10210;52.284;9.892;2022-07-06T05:31:26;8.77;;;1.60;;
20101;SDS011;10210;52.284;9.892;2022-07-06T05:33:52;7.50;;;1.83;;
20101;SDS011;10210;52.284;9.892;2022-07-06T05:36:17;4.70;;;1.30;;
20101;SDS011;10210;52.284;9.892;2022-07-06T05:38:43;5.20;;;1.60;;
20101;SDS011;10210;52.284;9.892;2022-07-06T05:41:09;6.20;;;1.57;;
20101;SDS011;10210;52.284;9.892;2022-07-06T05:43:35;7.87;;;1.60;;
20101;SDS011;10210;52.284;9.892;2022-07-06T05:46:02;6.43;;;1.60;;
20101;SDS011;10210;52.284;9.892;2022-07-06T05:48:28;5.50;;;1.60;;
20101;SDS011;10210;52.284;9.892;2022-07-06T05:51:13;7.60;;;1.60;;
20101;SDS011;10210;52.284;9.892;2022-07-06T05:53:39;9.90;;;1.70;;
20101;SDS011;10210;52.284;9.892;2022-07-06T05:56:04;7.17;;;1.70;;
20101;SDS011;10210;52.284;9.892;2022-07-06T05:58:30;7.77;;;1.73;;
20101;SDS011;10210;52.284;9.892;2022-07-06T06:00:56;8.93;;;2.00;;
20101;SDS011;10210;52.284;9.892;2022-07-06T06:03:22;6.43;;;1.70;;
20101;SDS011;10210;52.284;9.892;2022-07-06T06:05:48;6.97;;;1.50;;
20101;SDS011;10210;52.284;9.892;2022-07-06T06:08:14;5.73;;;1.33;;
20101;SDS011;10210;52.284;9.892;2022-07-06T06:10:40;6.53;;;1.40;;
20101;SDS011;10210;52.284;9.892;2022-07-06T06:13:05;5.97;;;1.43;;
20101;SDS011;10210;52.284;9.892;2022-07-06T06:15:31;8.37;;;2.00;;
20101;SDS011;10210;52.284;9.892;2022-07-06T06:17:57;8.10;;;1.90;;
20101;SDS011;10210;52.284;9.892;2022-07-06T06:20:23;6.07;;;1.53;;
20101;SDS011;10210;52.284;9.892;2022-07-06T06:22:53;7.73;;;1.90;;
20101;SDS011;10210;52.284;9.892;2022-07-06T06:25:31;7.53;;;1.53;;
20101;SDS011;10210;52.284;9.892;2022-07-06T06:27:59;9.33;;;1.73;;
20101;SDS011;10210;52.284;9.892;2022-07-06T06:30:25;6.93;;;1.47;;
20101;SDS011;10210;52.284;9.892;2022-07-06T06:32:51;7.47;;;2.20;;
20101;SDS011;10210;52.284;9.892;2022-07-06T06:35:37;5.27;;;1.60;;
20101;SDS011;10210;52.284;9.892;2022-07-06T06:38:06;5.13;;;1.60;;
20101;SDS011;10210;52.284;9.892;2022-07-06T06:40:32;4.80;;;1.50;;
20101;SDS011;10210;52.284;9.892;2022-07-06T06:42:58;8.73;;;1.70;;
20101;SDS011;10210;52.284;9.892;2022-07-06T06:45:23;6.10;;;1.53;;
20101;SDS011;10210;52.284;9.892;2022-07-06T06:47:49;7.07;;;1.70;;
20101;SDS011;10210;52.284;9.892;2022-07-06T06:50:15;4.90;;;1.40;;
20101;SDS011;10210;52.284;9.892;2022-07-06T06:52:40;7.73;;;1.63;;
20101;SDS011;10210;52.284;9.892;2022-07-06T06:55:06;5.37;;;1.70;;
20101;SDS011;10210;52.284;9.892;2022-07-06T06:57:33;8.13;;;1.73;;
20101;SDS011;10210;52.284;9.892;2022-07-06T06:59:59;9.23;;;1.50;;
20101;SDS011;10210;52.284;9.892;2022-07-06T07:02:24;8.87;;;1.60;;
20101;SDS011;10210;52.284;9.892;2022-07-06T07:04:50;8.17;;;1.30;;
20101;SDS011;10210;52.284;9.892;2022-07-06T07:07:15;3.77;;;1.30;;
20101;SDS011;10210;52.284;9.892;2022-07-06T07:09:41;5.03;;;1.47;;
20101;SDS011;10210;52.284;9.892;2022-07-06T07:12:07;4.70;;;1.40;;
20101;SDS011;10210;52.284;9.892;2022-07-06T07:14:33;6.77;;;1.50;;
20101;SDS011;10210;52.284;9.892;2022-07-06T07:16:58;6.43;;;1.60;;
20101;SDS011;10210;52.284;9.892;2022-07-06T07:19:24;6.37;;;1.23;;
20101;SDS011;10210;52.284;9.892;2022-07-06T07:21:50;5.03;;;1.47;;
20101;SDS011;10210;52.284;9.892;2022-07-06T07:24:15;7.10;;;1.67;;
20101;SDS011;10210;52.284;9.892;2022-07-06T07:26:41;5.03;;;1.43;;
20101;SDS011;10210;52.284;9.892;2022-07-06T07:29:07;8.20;;;1.30;;
20101;SDS011;10210;52.284;9.892;2022-07-06T07:31:32;6.30;;;1.20;;
20101;SDS011;10210;52.284;9.892;2022-07-06T07:33:58;5.97;;;1.40;;
20101;SDS011;10210;52.284;9.892;2022-07-06T07:36:24;7.07;;;1.57;;
20101;SDS011;10210;52.284;9.892;2022-07-06T07:38:51;4.40;;;1.37;;
20101;SDS011;10210;52.284;9.892;2022-07-06T07:41:17;5.17;;;1.37;;
20101;SDS011;10210;52.284;9.892;2022-07-06T07:43:43;4.50;;;1.40;;
20101;SDS011;10210;52.284;9.892;2022-07-06T07:46:09;5.20;;;1.30;;
20101;SDS011;10210;52.284;9.892;2022-07-06T07:48:35;7.13;;;1.63;;
20101;SDS011;10210;52.284;9.892;2022-07-06T07:51:01;5.70;;;1.10;;
20101;SDS011;10210;52.284;9.892;2022-07-06T07:53:26;6.00;;;1.20;;
20101;SDS011;10210;52.284;9.892;2022-07-06T07:55:52;6.73;;;1.43;;
20101;SDS011;10210;52.284;9.892;2022-07-06T07:58:18;4.30;;;1.13;;
20101;SDS011;10210;52.284;9.892;2022-07-06T08:00:44;4.83;;;1.20;;
20101;SDS011;10210;52.284;9.892;2022-07-06T08:03:10;6.63;;;1.27;;
20101;SDS011;10210;52.284;9.892;2022-07-06T08:05:37;5.83;;;1.30;;
20101;SDS011;10210;52.284;9.892;2022-07-06T08:08:03;7.03;;;1.30;;
20101;SDS011;10210;52.284;9.892;2022-07-06T08:10:29;8.23;;;1.53;;
20101;SDS011;10210;52.284;9.892;2022-07-06T08:12:55;7.63;;;1.60;;
20101;SDS011;10210;52.284;9.892;2022-07-06T08:15:21;5.43;;;1.50;;
20101;SDS011;10210;52.284;9.892;2022-07-06T08:17:47;2.87;;;1.00;;
20101;SDS011;10210;52.284;9.892;2022-07-06T08:20:14;5.80;;;1.40;;
20101;SDS011;10210;52.284;9.892;2022-07-06T08:22:41;6.80;;;1.57;;
20101;SDS011;10210;52.284;9.892;2022-07-06T08:25:08;8.47;;;1.40;;
20101;SDS011;10210;52.284;9.892;2022-07-06T08:27:34;5.67;;;1.37;;
20101;SDS011;10210;52.284;9.892;2022-07-06T08:30:00;5.57;;;1.10;;
20101;SDS011;10210;52.284;9.892;2022-07-06T08:32:27;5.47;;;1.50;;
20101;SDS011;10210;52.284;9.892;2022-07-06T08:34:53;3.47;;;1.10;;
20101;SDS011;10210;52.284;9.892;2022-07-06T08:37:18;4.97;;;1.37;;
20101;SDS011;10210;52.284;9.892;2022-07-06T08:39:44;6.37;;;1.40;;
20101;SDS011;10210;52.284;9.892;2022-07-06T08:42:10;4.60;;;1.03;;
20101;SDS011;10210;52.284;9.892;2022-07-06T08:44:37;5.63;;;1.20;;
20101;SDS011;10210;52.284;9.892;2022-07-06T08:47:04;1.73;;;0.80;;
20101;SDS011;10210;52.284;9.892;2022-07-06T08:49:32;2.57;;;0.90;;
20101;SDS011;10210;52.284;9.892;2022-07-06T08:52:00;4.33;;;0.90;;
20101;SDS011;10210;52.284;9.892;2022-07-06T08:54:28;4.10;;;0.90;;
20101;SDS011;10210;52.284;9.892;2022-07-06T08:56:54;4.73;;;1.13;;
20101;SDS011;10210;52.284;9.892;2022-07-06T08:59:20;4.97;;;1.10;;
20101;SDS011;10210;52.284;9.892;2022-07-06T09:01:46;2.73;;;0.80;;
20101;SDS011;10210;52.284;9.892;2022-07-06T09:04:14;5.10;;;1.10;;
20101;SDS011;10210;52.284;9.892;2022-07-06T09:06:42;4.60;;;1.17;;
20101;SDS011;10210;52.284;9.892;2022-07-06T09:09:12;4.77;;;0.90;;
20101;SDS011;10210;52.284;9.892;2022-07-06T09:11:46;4.70;;;1.00;;
20101;SDS011;10210;52.284;9.892;2022-07-06T09:14:12;4.43;;;0.77;;
20101;SDS011;10210;52.284;9.892;2022-07-06T09:16:38;4.23;;;0.73;;
20101;SDS011;10210;52.284;9.892;2022-07-06T09:19:05;5.00;;;1.23;;
20101;SDS011;10210;52.284;9.892;2022-07-06T09:21:32;4.67;;;0.90;;
20101;SDS011;10210;52.284;9.892;2022-07-06T09:24:02;3.17;;;0.90;;
20101;SDS011;10210;52.284;9.892;2022-07-06T09:26:32;4.17;;;0.90;;
20101;SDS011;10210;52.284;9.892;2022-07-06T09:28:58;4.33;;;0.90;;
20101;SDS011;10210;52.284;9.892;2022-07-06T09:31:24;4.80;;;1.10;;
20101;SDS011;10210;52.284;9.892;2022-07-06T09:36:40;4.63;;;1.00;;
20101;SDS011;10210;52.284;9.892;2022-07-06T09:41:51;1.80;;;0.77;;
20101;SDS011;10210;52.284;9.892;2022-07-06T09:44:27;4.17;;;1.00;;
20101;SDS011;10210;52.284;9.892;2022-07-06T09:46:57;3.03;;;0.53;;
20101;SDS011;10210;52.284;9.892;2022-07-06T09:49:26;2.80;;;0.60;;
20101;SDS011;10210;52.284;9.892;2022-07-06T09:51:53;2.80;;;0.90;;
20101;SDS011;10210;52.284;9.892;2022-07-06T09:54:42;1.77;;;0.50;;
20101;SDS011;10210;52.284;9.892;2022-07-06T09:57:08;3.33;;;0.70;;
20101;SDS011;10210;52.284;9.892;2022-07-06T09:59:34;3.17;;;0.57;;
20101;SDS011;10210;52.284;9.892;2022-07-06T10:02:06;3.57;;;0.90;;
20101;SDS011;10210;52.284;9.892;2022-07-06T10:04:45;2.93;;;0.80;;
20101;SDS011;10210;52.284;9.892;2022-07-06T10:07:12;2.73;;;0.60;;
20101;SDS011;10210;52.284;9.892;2022-07-06T10:09:38;2.90;;;0.90;;
20101;SDS011;10210;52.284;9.892;2022-07-06T10:12:06;5.90;;;1.10;;
20101;SDS011;10210;52.284;9.892;2022-07-06T10:14:37;6.17;;;1.17;;
20101;SDS011;10210;52.284;9.892;2022-07-06T10:17:05;4.43;;;1.10;;
20101;SDS011;10210;52.284;9.892;2022-07-06T10:19:31;3.70;;;0.83;;
20101;SDS011;10210;52.284;9.892;2022-07-06T10:22:00;3.47;;;0.80;;
20101;SDS011;10210;52.284;9.892;2022-07-06T10:24:28;3.60;;;0.70;;
20101;SDS011;10210;52.284;9.892;2022-07-06T10:26:55;4.23;;;0.97;;
20101;SDS011;10210;52.284;9.892;2022-07-06T10:29:29;5.83;;;0.80;;
20101;SDS011;10210;52.284;9.892;2022-07-06T10:31:55;6.83;;;1.10;;
20101;SDS011;10210;52.284;9.892;2022-07-06T10:34:22;4.17;;;1.00;;
20101;SDS011;10210;52.284;9.892;2022-07-06T10:36:51;3.10;;;0.93;;
20101;SDS011;10210;52.284;9.892;2022-07-06T10:39:36;2.53;;;0.70;;
20101;SDS011;10210;52.284;9.892;2022-07-06T10:42:38;3.37;;;0.93;;
20101;SDS011;10210;52.284;9.892;2022-07-06T10:45:07;3.20;;;0.70;;
20101;SDS011;10210;52.284;9.892;2022-07-06T10:47:35;3.57;;;0.80;;
20101;SDS011;10210;52.284;9.892;2022-07-06T10:50:02;3.47;;;0.90;;
20101;SDS011;10210;52.284;9.892;2022-07-06T10:55:34;3.53;;;0.87;;
20101;SDS011;10210;52.284;9.892;2022-07-06T10:58:03;1.53;;;0.80;;
20101;SDS011;10210;52.284;9.892;2022-07-06T11:01:13;4.10;;;0.93;;
20101;SDS011;10210;52.284;9.892;2022-07-06T11:03:37;2.67;;;0.70;;
20101;SDS011;10210;52.284;9.892;2022-07-06T11:06:22;3.83;;;0.77;;
20101;SDS011;10210;52.284;9.892;2022-07-06T11:14:00;1.90;;;0.63;;
20101;SDS011;10210;52.284;9.892;2022-07-06T11:19:16;6.17;;;1.03;;
20101;SDS011;10210;52.284;9.892;2022-07-06T11:24:17;4.60;;;0.70;;
20101;SDS011;10210;52.284;9.892;2022-07-06T11:26:49;4.10;;;0.90;;
20101;SDS011;10210;52.284;9.892;2022-07-06T11:29:18;4.10;;;0.83;;
20101;SDS011;10210;52.284;9.892;2022-07-06T11:31:47;2.00;;;0.60;;
20101;SDS011;10210;52.284;9.892;2022-07-06T11:34:25;3.20;;;0.60;;
20101;SDS011;10210;52.284;9.892;2022-07-06T11:36:58;2.23;;;0.60;;
20101;SDS011;10210;52.284;9.892;2022-07-06T11:39:31;4.70;;;0.90;;
20101;SDS011;10210;52.284;9.892;2022-07-06T11:42:01;2.47;;;0.70;;
20101;SDS011;10210;52.284;9.892;2022-07-06T11:44:29;4.60;;;0.83;;
20101;SDS011;10210;52.284;9.892;2022-07-06T11:46:57;2.67;;;0.80;;
20101;SDS011;10210;52.284;9.892;2022-07-06T11:49:29;6.23;;;0.90;;
20101;SDS011;10210;52.284;9.892;2022-07-06T11:51:57;2.97;;;0.70;;
20101;SDS011;10210;52.284;9.892;2022-07-06T11:54:24;3.33;;;0.80;;
20101;SDS011;10210;52.284;9.892;2022-07-06T11:56:55;3.37;;;0.70;;
20101;SDS011;10210;52.284;9.892;2022-07-06T11:59:27;3.90;;;0.70;;
20101;SDS011;10210;52.284;9.892;2022-07-06T12:02:01;1.70;;;0.60;;
20101;SDS011;10210;52.284;9.892;2022-07-06T12:04:28;5.60;;;0.97;;
20101;SDS011;10210;52.284;9.892;2022-07-06T12:07:07;4.50;;;0.70;;
20101;SDS011;10210;52.284;9.892;2022-07-06T12:09:44;2.80;;;0.70;;
20101;SDS011;10210;52.284;9.892;2022-07-06T12:12:12;2.20;;;0.67;;
20101;SDS011;10210;52.284;9.892;2022-07-06T12:14:39;1.67;;;0.60;;
20101;SDS011;10210;52.284;9.892;2022-07-06T12:17:07;0.83;;;0.50;;
20101;SDS011;10210;52.284;9.892;2022-07-06T12:19:38;4.73;;;0.73;;
20101;SDS011;10210;52.284;9.892;2022-07-06T12:22:06;3.20;;;0.60;;
20101;SDS011;10210;52.284;9.892;2022-07-06T12:24:34;2.63;;;0.50;;
20101;SDS011;10210;52.284;9.892;2022-07-06T12:27:19;4.23;;;0.93;;
20101;SDS011;10210;52.284;9.892;2022-07-06T12:29:45;3.40;;;0.80;;
20101;SDS011;10210;52.284;9.892;2022-07-06T12:32:17;2.73;;;0.60;;
20101;SDS011;10210;52.284;9.892;2022-07-06T12:34:47;2.43;;;0.60;;
20101;SDS011;10210;52.284;9.892;2022-07-06T12:37:27;3.70;;;0.70;;
20101;SDS011;10210;52.284;9.892;2022-07-06T12:39:53;4.07;;;0.70;;
20101;SDS011;10210;52.284;9.892;2022-07-06T12:42:19;1.77;;;0.70;;
20101;SDS011;10210;52.284;9.892;2022-07-06T12:44:51;4.30;;;0.60;;
20101;SDS011;10210;52.284;9.892;2022-07-06T12:47:24;2.93;;;0.77;;
20101;SDS011;10210;52.284;9.892;2022-07-06T12:50:09;2.13;;;0.67;;
20101;SDS011;10210;52.284;9.892;2022-07-06T12:52:36;3.63;;;0.80;;
20101;SDS011;10210;52.284;9.892;2022-07-06T12:55:03;2.97;;;0.60;;
20101;SDS011;10210;52.284;9.892;2022-07-06T12:57:42;1.73;;;0.70;;
20101;SDS011;10210;52.284;9.892;2022-07-06T13:00:11;2.93;;;0.80;;
20101;SDS011;10210;52.284;9.892;2022-07-06T13:02:38;1.63;;;0.70;;
20101;SDS011;10210;52.284;9.892;2022-07-06T13:07:35;2.43;;;0.50;;
20101;SDS011;10210;52.284;9.892;2022-07-06T13:10:07;0.67;;;0.40;;
20101;SDS011;10210;52.284;9.892;2022-07-06T13:12:35;1.83;;;0.47;;
20101;SDS011;10210;52.284;9.892;2022-07-06T13:15:01;5.77;;;0.80;;
20101;SDS011;10210;52.284;9.892;2022-07-06T13:17:29;2.00;;;0.63;;
20101;SDS011;10210;52.284;9.892;2022-07-06T13:19:54;0.83;;;0.50;;
20101;SDS011;10210;52.284;9.892;2022-07-06T13:22:20;4.57;;;0.70;;
20101;SDS011;10210;52.284;9.892;2022-07-06T13:24:46;5.53;;;0.97;;
20101;SDS011;10210;52.284;9.892;2022-07-06T13:27:12;2.77;;;0.70;;
20101;SDS011;10210;52.284;9.892;2022-07-06T13:29:38;2.30;;;0.60;;
20101;SDS011;10210;52.284;9.892;2022-07-06T13:32:04;4.30;;;0.73;;
20101;SDS011;10210;52.284;9.892;2022-07-06T13:34:31;2.57;;;0.70;;
20101;SDS011;10210;52.284;9.892;2022-07-06T13:36:57;2.03;;;0.63;;
20101;SDS011;10210;52.284;9.892;2022-07-06T13:39:23;4.17;;;0.80;;
20101;SDS011;10210;52.284;9.892;2022-07-06T13:41:49;6.50;;;0.80;;
20101;SDS011;10210;52.284;9.892;2022-07-06T13:44:14;4.10;;;0.97;;
20101;SDS011;10210;52.284;9.892;2022-07-06T13:46:41;2.57;;;0.80;;
20101;SDS011;10210;52.284;9.892;2022-07-06T13:49:07;2.77;;;0.80;;
20101;SDS011;10210;52.284;9.892;2022-07-06T13:51:33;2.10;;;0.87;;
20101;SDS011;10210;52.284;9.892;2022-07-06T13:53:59;4.73;;;0.80;;
20101;SDS011;10210;52.284;9.892;2022-07-06T13:56:26;3.27;;;0.70;;
20101;SDS011;10210;52.284;9.892;2022-07-06T13:58:52;3.07;;;0.80;;
20101;SDS011;10210;52.284;9.892;2022-07-06T14:01:19;2.53;;;0.53;;
20101;SDS011;10210;52.284;9.892;2022-07-06T14:03:45;5.23;;;1.03;;
20101;SDS011;10210;52.284;9.892;2022-07-06T14:06:12;2.30;;;0.70;;
20101;SDS011;10210;52.284;9.892;2022-07-06T14:08:38;4.17;;;0.90;;
20101;SDS011;10210;52.284;9.892;2022-07-06T14:11:05;2.00;;;0.70;;
20101;SDS011;10210;52.284;9.892;2022-07-06T14:13:33;2.43;;;0.87;;
20101;SDS011;10210;52.284;9.892;2022-07-06T14:16:01;3.73;;;0.90;;
20101;SDS011;10210;52.284;9.892;2022-07-06T14:18:28;2.17;;;0.70;;
20101;SDS011;10210;52.284;9.892;2022-07-06T14:20:54;5.23;;;0.87;;
20101;SDS011;10210;52.284;9.892;2022-07-06T14:23:20;2.83;;;0.70;;
20101;SDS011;10210;52.284;9.892;2022-07-06T14:25:47;3.13;;;0.60;;
20101;SDS011;10210;52.284;9.892;2022-07-06T14:28:14;3.47;;;0.70;;
20101;SDS011;10210;52.284;9.892;2022-07-06T14:30:41;3.27;;;0.70;;
20101;SDS011;10210;52.284;9.892;2022-07-06T14:33:10;8.53;;;1.00;;
20101;SDS011;10210;52.284;9.892;2022-07-06T14:35:45;2.17;;;0.70;;
20101;SDS011;10210;52.284;9.892;2022-07-06T14:38:16;2.90;;;0.60;;
20101;SDS011;10210;52.284;9.892;2022-07-06T14:40:43;2.03;;;0.50;;
20101;SDS011;10210;52.284;9.892;2022-07-06T14:43:10;3.43;;;0.73;;
20101;SDS011;10210;52.284;9.892;2022-07-06T14:45:36;2.03;;;0.53;;
20101;SDS011;10210;52.284;9.892;2022-07-06T14:48:02;2.83;;;1.00;;
20101;SDS011;10210;52.284;9.892;2022-07-06T14:50:30;4.07;;;0.80;;
20101;SDS011;10210;52.284;9.892;2022-07-06T14:53:02;4.63;;;0.80;;
20101;SDS011;10210;52.284;9.892;2022-07-06T14:55:28;3.90;;;1.03;;
20101;SDS011;10210;52.284;9.892;2022-07-06T14:57:54;2.57;;;0.70;;
20101;SDS011;10210;52.284;9.892;2022-07-06T15:00:22;4.43;;;0.60;;
20101;SDS011;10210;52.284;9.892;2022-07-06T15:02:48;4.37;;;0.70;;
20101;SDS011;10210;52.284;9.892;2022-07-06T15:05:14;2.93;;;0.63;;
20101;SDS011;10210;52.284;9.892;2022-07-06T15:07:40;4.67;;;1.00;;
20101;SDS011;10210;52.284;9.892;2022-07-06T15:10:06;1.43;;;0.60;;
20101;SDS011;10210;52.284;9.892;2022-07-06T15:12:33;7.53;;;0.90;;
20101;SDS011;10210;52.284;9.892;2022-07-06T15:14:59;2.13;;;0.73;;